Map

Track Data

SID SEASON NUMBER BASIN SUBBASIN NAME ISO_TIME NATURE LAT LON WMO_WIND WMO_PRES WMO_AGENCY TRACK_TYPE DIST2LAND LANDFALL IFLAG USA_AGENCY USA_ATCF_ID USA_LAT USA_LON USA_RECORD USA_STATUS USA_WIND USA_PRES USA_SSHS USA_R34_NE USA_R34_SE USA_R34_SW USA_R34_NW USA_R50_NE USA_R50_SE USA_R50_SW USA_R50_NW USA_R64_NE USA_R64_SE USA_R64_SW USA_R64_NW USA_POCI USA_ROCI USA_RMW USA_EYE TOKYO_LAT TOKYO_LON TOKYO_GRADE TOKYO_WIND TOKYO_PRES TOKYO_R50_DIR TOKYO_R50_LONG TOKYO_R50_SHORT TOKYO_R30_DIR TOKYO_R30_LONG TOKYO_R30_SHORT TOKYO_LAND CMA_LAT CMA_LON CMA_CAT CMA_WIND CMA_PRES HKO_LAT HKO_LON HKO_CAT HKO_WIND HKO_PRES NEWDELHI_LAT NEWDELHI_LON NEWDELHI_GRADE NEWDELHI_WIND NEWDELHI_PRES NEWDELHI_CI NEWDELHI_DP NEWDELHI_POCI REUNION_LAT REUNION_LON REUNION_TYPE REUNION_WIND REUNION_PRES REUNION_TNUM REUNION_CI REUNION_RMW REUNION_R34_NE REUNION_R34_SE REUNION_R34_SW REUNION_R34_NW REUNION_R50_NE REUNION_R50_SE REUNION_R50_SW REUNION_R50_NW REUNION_R64_NE REUNION_R64_SE REUNION_R64_SW REUNION_R64_NW BOM_LAT BOM_LON BOM_TYPE BOM_WIND BOM_PRES BOM_TNUM BOM_CI BOM_RMW BOM_R34_NE BOM_R34_SE BOM_R34_SW BOM_R34_NW BOM_R50_NE BOM_R50_SE BOM_R50_SW BOM_R50_NW BOM_R64_NE BOM_R64_SE BOM_R64_SW BOM_R64_NW BOM_ROCI BOM_POCI BOM_EYE BOM_POS_METHOD BOM_PRES_METHOD NADI_LAT NADI_LON NADI_CAT NADI_WIND NADI_PRES WELLINGTON_LAT WELLINGTON_LON WELLINGTON_WIND WELLINGTON_PRES DS824_LAT DS824_LON DS824_STAGE DS824_WIND DS824_PRES TD9636_LAT TD9636_LON TD9636_STAGE TD9636_WIND TD9636_PRES TD9635_LAT TD9635_LON TD9635_WIND TD9635_PRES TD9635_ROCI NEUMANN_LAT NEUMANN_LON NEUMANN_CLASS NEUMANN_WIND NEUMANN_PRES MLC_LAT MLC_LON MLC_CLASS MLC_WIND MLC_PRES USA_GUST BOM_GUST BOM_GUST_PER REUNION_GUST REUNION_GUST_PER USA_SEAHGT USA_SEARAD_NE USA_SEARAD_SE USA_SEARAD_SW USA_SEARAD_NW STORM_SPEED STORM_DIR
1927223N20086 1927 36 NI BB NOT_NAMED 1927-08-11 00:00:00 TS 19.6000 86.4000 main 44 30 _________O____ -1 19.6000 86.4000 TC 30 3 339
1927223N20086 1927 36 NI BB NOT_NAMED 1927-08-11 03:00:00 TS 19.7333 86.3384 main 30 10 _________PO___ -1 19.8000 86.3075 TC 30 19.6000 86.4000 1 4 334
1927223N20086 1927 36 NI BB NOT_NAMED 1927-08-11 06:00:00 TS 19.9206 86.2363 main 10 0 _________OP___ -1 20.0000 86.2000 TC 30 19.8016 86.2908 1 4 331
1927223N20086 1927 36 NI BB NOT_NAMED 1927-08-11 09:00:00 TS 20.1154 86.1122 main 0 0 _________PP___ -1 20.2000 86.0650 TC 30 20.0025 86.1752 1 5 327
1927223N20086 1927 36 NI BB NOT_NAMED 1927-08-11 12:00:00 TS 20.3011 85.9735 main 0 0 _________OP___ -1 20.4000 85.9000 TC 30 20.2022 86.0470 1 5 323
1927223N20086 1927 36 NI BB NOT_NAMED 1927-08-11 15:00:00 TS 20.5000 85.8037 main 0 0 _________PO___ -1 20.6000 85.7075 TC 30 20.4000 85.9000 1 5 320
1927223N20086 1927 36 NI BB NOT_NAMED 1927-08-11 18:00:00 TS 20.6980 85.6148 main 0 0 _________OP___ -1 20.8000 85.5000 TC 30 20.5959 85.7295 1 5 318
1927223N20086 1927 36 NI BB NOT_NAMED 1927-08-11 21:00:00 TS 20.8962 85.4223 main 0 0 _________PP___ -1 20.9999 85.3074 TC 30 20.7924 85.5373 1 5 317
1927223N20086 1927 36 NI BB NOT_NAMED 1927-08-12 00:00:00 TS 21.0964 85.2132 main 0 0 _________OP___ -1 21.2000 85.1000 TC 30 20.9927 85.3263 1 6 314
1927223N20086 1927 36 NI BB NOT_NAMED 1927-08-12 03:00:00 TS 21.2962 84.9787 main 0 0 _________PO___ -1 21.3925 84.8574 TC 30 21.2000 85.1000 1 6 313
1927223N20086 1927 36 NI BB NOT_NAMED 1927-08-12 06:00:00 TS 21.5089 84.7321 main 0 0 _________OP___ -1 21.6000 84.6000 TC 30 21.4178 84.8643 1 6 314
1927223N20086 1927 36 NI BB NOT_NAMED 1927-08-12 09:00:00 TS 21.7462 84.4824 main 0 0 _________PP___ -1 21.8500 84.3500 TC 30 21.6425 84.6149 1 7 316
1927223N20086 1927 36 NI BB NOT_NAMED 1927-08-12 12:00:00 TS 21.9855 84.2290 main 0 0 _________OP___ -1 22.1000 84.1000 TC 30 21.8709 84.3580 1 7 314
1927223N20086 1927 36 NI BB NOT_NAMED 1927-08-12 15:00:00 TS 22.2000 83.9749 main 0 0 _________PO___ -1 22.3000 83.8498 TC 30 22.1000 84.1000 1 6 312
1927223N20086 1927 36 NI BB NOT_NAMED 1927-08-12 18:00:00 TS 22.4166 83.7129 main 0 0 _________OP___ -1 22.5000 83.6000 TC 30 22.3332 83.8257 1 7 313
1927223N20086 1927 36 NI BB NOT_NAMED 1927-08-12 21:00:00 TS 22.6614 83.4414 main 0 0 _________PP___ -1 22.7575 83.3276 TC 30 22.5652 83.5552 1 7 316
1927223N20086 1927 36 NI BB NOT_NAMED 1927-08-13 00:00:00 TS 22.8948 83.2035 main 0 0 _________OP___ -1 23.0000 83.1000 TC 30 22.7895 83.3071 1 6 318
1927223N20086 1927 36 NI BB NOT_NAMED 1927-08-13 03:00:00 TS 23.0787 83.0387 main 0 0 _________PO___ -1 23.1574 82.9773 TC 30 23.0000 83.1000 1 4 324
1927223N20086 1927 36 NI BB NOT_NAMED 1927-08-13 06:00:00 TS 23.2445 82.9322 main 0 0 _________OP___ -1 23.3000 82.9000 TC 30 23.1891 82.9645 1 4 332
1927223N20086 1927 36 NI BB NOT_NAMED 1927-08-13 09:00:00 TS 23.4286 82.8384 main 0 0 _________PP___ -1 23.4925 82.8074 TC 30 23.3646 82.8693 1 4 335
1927223N20086 1927 36 NI BB NOT_NAMED 1927-08-13 12:00:00 TS 23.6164 82.7448 main 0 0 _________OP___ -1 23.7000 82.7000 TC 30 23.5329 82.7895 1 4 333
1927223N20086 1927 36 NI BB NOT_NAMED 1927-08-13 15:00:00 TS 23.8038 82.6288 main 0 0 _________PO___ -1 23.9075 82.5575 TC 30 23.7000 82.7000 1 4 328
1927223N20086 1927 36 NI BB NOT_NAMED 1927-08-13 18:00:00 TS 23.9691 82.5035 main 0 0 _________OP___ -1 24.1000 82.4000 TC 30 23.8708 82.5811 1 4 324
1927223N20086 1927 36 NI BB NOT_NAMED 1927-08-13 21:00:00 TS 24.1312 82.3604 main 0 0 _________PP___ -1 24.2600 82.2475 TC 30 24.0453 82.4357 1 4 320
1927223N20086 1927 36 NI BB NOT_NAMED 1927-08-14 00:00:00 TS 24.2814 82.2150 main 0 0 _________OP___ -1 24.4000 82.1000 TC 30 24.2221 82.2724 1 4 319
1927223N20086 1927 36 NI BB NOT_NAMED 1927-08-14 03:00:00 NR 24.4000 82.1000 main 0 __________O___ -1 TC 24.4000 82.1000 1 3 319

About IBTrACS Database

This database is a web-friendly format of International Best Track Archive for Climate Stewardship (IBTrACS), a global best track data archive curated by NOAA dating back to 1842.

Updated: 2021-10-21